Terminal Aerodrome Forecast
Issued by NWS

Home | Current Version | Previous Version | Text Only | Print | Product List | Glossary On
Versions: 1 2 3 4 5 6 7 8 9 10 11 12 13 14 15 16 17 18 19 20 21 22 23 24 25 26
000
FTUS46 KOTX 162330
TAFPUW
TAF
KPUW 162330Z 1700/1724 29008KT P6SM SCT090 BKN200
     FM170300 VRB02KT P6SM FEW090 SCT200
     FM171400 09005KT 5SM HZ SCT110 BKN180
     FM172000 25005KT P6SM SCT100 BKN150=

USA.gov is the U.S. government's official web portal to all federal, state and local government web resources and services.